Time;durP1;ratioP1;P1;durP2;ratioP2;P2;SDS_P1;SDS_P2;PMS_P1;PMS_P2;Temp;Humidity;BMP_temperature;BMP_pressure;BME280_temperature;BME280_humidity;BME280_pressure;Samples;Min_cycle;Max_cycle;Signal;HPM_P1;HPM_P2
2023/03/18 00:00:44;;;;;;;9.90;8.82;;;19.70;50.10;;;;;;4975955;28;20189;-70
2023/03/18 00:03:10;;;;;;;10.82;9.32;;;19.70;50.10;;;;;;4991991;28;20764;-70
2023/03/18 00:05:37;;;;;;;11.43;9.27;;;19.70;50.20;;;;;;4975982;28;20665;-70
2023/03/18 00:08:05;;;;;;;10.30;8.63;;;19.70;50.10;;;;;;4975895;28;20224;-70
2023/03/18 00:10:32;;;;;;;11.48;9.40;;;19.70;50.20;;;;;;4983675;28;20192;-70
2023/03/18 00:12:58;;;;;;;9.20;8.25;;;19.60;50.00;;;;;;4975304;28;20181;-69
2023/03/18 00:15:24;;;;;;;10.07;8.70;;;19.70;50.10;;;;;;4991837;28;20682;-70
2023/03/18 00:17:50;;;;;;;11.13;8.48;;;19.60;50.00;;;;;;4978033;28;20208;-71
2023/03/18 00:20:17;;;;;;;8.75;7.85;;;19.70;50.10;;;;;;4975519;28;20279;-71
2023/03/18 00:22:44;;;;;;;10.15;8.55;;;19.60;50.00;;;;;;4975826;28;20200;-69
2023/03/18 00:25:13;;;;;;;10.32;8.48;;;19.60;50.10;;;;;;4975412;28;20193;-70
2023/03/18 00:27:39;;;;;;;11.02;8.68;;;19.60;50.00;;;;;;4977879;28;20230;-71
2023/03/18 00:30:07;;;;;;;10.05;8.05;;;19.60;50.70;;;;;;4975622;28;20199;-71
2023/03/18 00:32:33;;;;;;;11.52;8.70;;;19.60;50.00;;;;;;4975659;28;20285;-71
2023/03/18 00:35:00;;;;;;;10.15;7.70;;;19.60;50.00;;;;;;4975347;28;20193;-70
2023/03/18 00:37:29;;;;;;;9.02;7.90;;;19.60;50.00;;;;;;4967580;28;20196;-69
2023/03/18 00:40:09;;;;;;;11.07;8.68;;;19.60;50.00;;;;;;4975343;28;20189;-69
2023/03/18 00:42:46;;;;;;;9.88;7.78;;;19.60;50.10;;;;;;4985199;28;20193;-72
2023/03/18 00:45:15;;;;;;;8.25;7.43;;;19.60;50.10;;;;;;4983333;28;20275;-70
2023/03/18 00:47:44;;;;;;;10.15;8.25;;;19.60;50.00;;;;;;4974610;28;20209;-70
2023/03/18 00:50:11;;;;;;;9.35;7.70;;;19.60;50.00;;;;;;4991369;28;20184;-70
2023/03/18 00:52:37;;;;;;;11.27;8.68;;;19.60;50.00;;;;;;4991484;28;20199;-69
2023/03/18 00:55:03;;;;;;;9.95;8.23;;;19.60;50.60;;;;;;4991284;28;20193;-70
2023/03/18 00:57:29;;;;;;;8.65;7.20;;;19.60;50.10;;;;;;4975098;28;20195;-69
2023/03/18 00:59:58;;;;;;;10.70;7.70;;;19.60;50.00;;;;;;4991306;28;20224;-70
2023/03/18 01:02:26;;;;;;;7.80;6.97;;;19.60;50.00;;;;;;4975089;28;20231;-70
2023/03/18 01:04:52;;;;;;;7.45;6.65;;;19.60;50.00;;;;;;4974672;28;20724;-71
2023/03/18 01:07:18;;;;;;;7.85;7.05;;;19.60;50.00;;;;;;4990978;28;20304;-70
2023/03/18 01:09:44;;;;;;;8.57;7.65;;;19.60;50.00;;;;;;4991239;28;20231;-70
2023/03/18 01:12:10;;;;;;;7.60;6.80;;;19.60;50.00;;;;;;4989090;28;20613;-69
2023/03/18 01:14:39;;;;;;;7.80;6.75;;;19.50;50.00;;;;;;4994795;28;20216;-71
2023/03/18 01:17:07;;;;;;;7.68;6.88;;;19.50;50.00;;;;;;4981059;28;20252;-70
2023/03/18 01:19:34;;;;;;;9.65;7.43;;;19.60;50.00;;;;;;4981151;28;20594;-70
2023/03/18 01:22:02;;;;;;;8.85;6.90;;;19.60;50.00;;;;;;4981354;28;20189;-69
2023/03/18 01:24:31;;;;;;;7.35;6.63;;;19.60;50.00;;;;;;4981785;28;20188;-70
2023/03/18 01:26:58;;;;;;;6.78;6.05;;;19.60;50.00;;;;;;4997689;28;20208;-70
2023/03/18 01:29:25;;;;;;;9.38;7.15;;;19.60;50.10;;;;;;4997248;28;20204;-70
2023/03/18 01:31:51;;;;;;;7.18;6.45;;;19.50;50.00;;;;;;4981297;28;20184;-69
2023/03/18 01:34:17;;;;;;;7.55;6.28;;;19.60;50.00;;;;;;4995739;28;20203;-69
2023/03/18 01:36:48;;;;;;;8.30;6.50;;;19.60;50.00;;;;;;4997780;28;20219;-69
2023/03/18 01:39:16;;;;;;;8.43;6.68;;;19.50;50.00;;;;;;4997037;28;20251;-70
2023/03/18 01:41:44;;;;;;;7.05;6.35;;;19.50;50.60;;;;;;4981442;28;20184;-70
2023/03/18 01:44:19;;;;;;;8.13;6.72;;;19.50;49.90;;;;;;4995166;28;20197;-70
2023/03/18 01:46:49;;;;;;;7.00;6.30;;;19.50;50.00;;;;;;4981461;28;20219;-70
2023/03/18 01:49:47;;;;;;;6.38;5.78;;;19.50;50.00;;;;;;4980882;28;20469;-69
2023/03/18 01:52:24;;;;;;;6.68;5.95;;;19.50;50.00;;;;;;4997335;28;20188;-70
2023/03/18 01:55:05;;;;;;;6.38;5.78;;;19.50;50.00;;;;;;4981034;28;20279;-70
2023/03/18 01:57:34;;;;;;;5.85;5.35;;;19.50;50.00;;;;;;5002266;28;20190;-70
2023/03/18 02:00:03;;;;;;;6.68;5.55;;;19.50;50.00;;;;;;5009761;28;20219;-70
2023/03/18 02:02:43;;;;;;;6.72;6.03;;;19.50;50.00;;;;;;4990657;28;20192;-70
2023/03/18 02:05:17;;;;;;;7.25;6.50;;;19.50;50.00;;;;;;4980922;28;20192;-70
2023/03/18 02:07:45;;;;;;;7.05;5.93;;;19.50;50.00;;;;;;4980703;28;20216;-69
2023/03/18 02:10:18;;;;;;;6.35;5.72;;;19.50;50.00;;;;;;4980852;28;20615;-70
2023/03/18 02:12:51;;;;;;;6.53;5.90;;;19.50;50.00;;;;;;4984480;28;20184;-70
2023/03/18 02:15:27;;;;;;;6.10;5.50;;;19.50;50.00;;;;;;4990001;28;20184;-70
2023/03/18 02:18:10;;;;;;;6.90;5.80;;;19.50;50.00;;;;;;4982256;28;20211;-70
2023/03/18 02:21:23;;;;;;;6.13;5.53;;;19.50;50.10;;;;;;5002374;28;20200;-69
2023/03/18 02:24:21;;;;;;;7.00;5.60;;;19.50;50.00;;;;;;4990951;28;20235;-70
2023/03/18 02:27:00;;;;;;;6.90;5.78;;;19.50;50.00;;;;;;5004785;28;20283;-70
2023/03/18 02:29:36;;;;;;;7.70;5.43;;;19.50;50.00;;;;;;4993839;28;20204;-71
2023/03/18 02:32:07;;;;;;;7.00;5.57;;;19.50;50.00;;;;;;4993923;28;20232;-69
2023/03/18 02:34:37;;;;;;;6.45;5.78;;;19.50;50.10;;;;;;4977280;28;20188;-70
2023/03/18 02:37:03;;;;;;;6.10;5.50;;;19.50;50.00;;;;;;4990377;28;20201;-70
2023/03/18 02:39:30;;;;;;;5.78;5.18;;;19.50;50.00;;;;;;4985322;28;20200;-70
2023/03/18 02:41:57;;;;;;;6.32;5.10;;;19.40;50.00;;;;;;4993754;28;20275;-69
2023/03/18 02:44:23;;;;;;;6.13;5.00;;;19.40;50.00;;;;;;4977600;28;20239;-70
2023/03/18 02:47:25;;;;;;;6.40;5.63;;;19.40;50.00;;;;;;4993524;28;20220;-70
2023/03/18 02:49:52;;;;;;;5.85;5.25;;;19.50;50.00;;;;;;4977231;28;20195;-70
2023/03/18 02:52:18;;;;;;;6.55;5.70;;;19.50;50.00;;;;;;4993753;28;20185;-70
2023/03/18 02:54:44;;;;;;;6.53;5.18;;;19.40;50.00;;;;;;4977402;28;20231;-70
2023/03/18 02:57:10;;;;;;;5.88;5.00;;;19.40;49.90;;;;;;4993003;28;20339;-70
2023/03/18 02:59:38;;;;;;;4.95;4.45;;;19.50;50.00;;;;;;4977318;28;20216;-69
2023/03/18 03:02:05;;;;;;;5.47;4.97;;;19.40;49.90;;;;;;4993384;28;20197;-69
2023/03/18 03:04:31;;;;;;;5.80;5.15;;;19.50;50.00;;;;;;4993015;28;20675;-69
2023/03/18 03:07:00;;;;;;;5.80;5.00;;;19.50;50.00;;;;;;4977017;28;20254;-70
2023/03/18 03:09:41;;;;;;;4.97;4.47;;;19.40;50.00;;;;;;4971711;28;20209;-69
2023/03/18 03:12:08;;;;;;;5.88;4.95;;;19.40;49.90;;;;;;4976905;28;20196;-70
2023/03/18 03:14:39;;;;;;;5.00;4.45;;;19.40;50.00;;;;;;4989274;28;20197;-70
2023/03/18 03:17:06;;;;;;;5.50;5.00;;;19.50;50.10;;;;;;4981107;28;20196;-70
2023/03/18 03:19:32;;;;;;;5.60;5.05;;;19.50;50.00;;;;;;4992808;28;20209;-70
2023/03/18 03:21:57;;;;;;;5.50;4.72;;;19.40;50.00;;;;;;4989740;28;20197;-71
2023/03/18 03:24:24;;;;;;;4.97;4.30;;;19.40;50.00;;;;;;4976753;28;20193;-70
2023/03/18 03:26:50;;;;;;;5.40;4.90;;;19.40;49.90;;;;;;4985372;28;20692;-69
2023/03/18 03:29:16;;;;;;;5.28;4.38;;;19.40;50.00;;;;;;4992420;28;20224;-70
2023/03/18 03:31:42;;;;;;;5.13;4.55;;;19.40;50.00;;;;;;4992841;28;20259;-70
2023/03/18 03:34:08;;;;;;;5.00;4.50;;;19.40;50.00;;;;;;4992520;28;20260;-69
2023/03/18 03:36:35;;;;;;;5.10;4.40;;;19.40;50.00;;;;;;4992517;28;20668;-70
2023/03/18 03:39:01;;;;;;;5.80;4.85;;;19.40;50.00;;;;;;4976004;28;20598;-70
2023/03/18 03:41:27;;;;;;;6.10;4.80;;;19.50;50.00;;;;;;4992398;28;20204;-70
2023/03/18 03:43:53;;;;;;;4.60;4.20;;;19.50;50.00;;;;;;4976333;28;20193;-70
2023/03/18 03:46:19;;;;;;;5.57;4.38;;;19.40;50.00;;;;;;4990557;28;20296;-70
2023/03/18 03:48:46;;;;;;;4.50;4.10;;;19.40;49.90;;;;;;4992266;28;20282;-69
2023/03/18 03:51:13;;;;;;;4.60;4.10;;;19.40;50.00;;;;;;4992433;28;20195;-71
2023/03/18 03:53:40;;;;;;;4.25;3.85;;;19.40;49.90;;;;;;4976609;28;20263;-70
2023/03/18 03:56:08;;;;;;;4.75;4.10;;;19.40;50.00;;;;;;4976071;28;20188;-70
2023/03/18 03:58:34;;;;;;;4.20;3.70;;;19.40;50.00;;;;;;4991813;28;20228;-69
2023/03/18 04:01:01;;;;;;;4.70;4.28;;;19.40;49.90;;;;;;4976223;28;20189;-71
2023/03/18 04:03:28;;;;;;;4.55;4.13;;;19.40;49.90;;;;;;4991278;28;20703;-70
2023/03/18 04:05:55;;;;;;;4.40;3.95;;;19.40;50.00;;;;;;4992191;28;20546;-70
2023/03/18 04:08:23;;;;;;;4.82;4.10;;;19.40;49.90;;;;;;5039720;23;20254;-70
2023/03/18 04:10:49;;;;;;;4.20;3.67;;;19.40;49.90;;;;;;5048736;28;20222;-70
2023/03/18 04:13:15;;;;;;;4.28;3.85;;;19.40;49.90;;;;;;5033083;28;20180;-70
2023/03/18 04:15:41;;;;;;;4.03;3.63;;;19.40;50.00;;;;;;5048438;28;20174;-70
2023/03/18 04:18:12;;;;;;;4.32;3.92;;;19.40;49.90;;;;;;5015777;28;20221;-70
2023/03/18 04:20:38;;;;;;;5.10;3.53;;;19.40;49.80;;;;;;5015571;28;20252;-70
2023/03/18 04:23:13;;;;;;;4.88;4.38;;;19.40;49.90;;;;;;5048311;28;20182;-70
2023/03/18 04:25:39;;;;;;;4.30;3.80;;;19.40;49.90;;;;;;5028725;28;20176;-70
2023/03/18 04:28:05;;;;;;;3.85;3.50;;;19.40;49.90;;;;;;5027296;28;20194;-71
2023/03/18 04:30:32;;;;;;;3.80;3.40;;;19.40;49.80;;;;;;5015228;28;20191;-70
2023/03/18 04:33:02;;;;;;;4.32;3.78;;;19.40;49.90;;;;;;5015590;28;20175;-70
2023/03/18 04:35:30;;;;;;;5.30;3.28;;;19.40;49.90;;;;;;5031655;28;20564;-70
2023/03/18 04:37:57;;;;;;;3.72;3.42;;;19.40;49.80;;;;;;5015202;28;20662;-70
2023/03/18 04:40:23;;;;;;;3.50;3.20;;;19.30;49.80;;;;;;5047931;28;20175;-70
2023/03/18 04:42:49;;;;;;;3.92;3.53;;;19.30;49.80;;;;;;5015353;28;20293;-71
2023/03/18 04:45:21;;;;;;;3.67;3.30;;;19.30;49.80;;;;;;5048369;28;20187;-70
2023/03/18 04:47:48;;;;;;;3.67;3.30;;;19.40;49.80;;;;;;5047780;28;20199;-70
2023/03/18 04:50:15;;;;;;;3.65;3.35;;;19.40;49.80;;;;;;5047414;28;20552;-70
2023/03/18 04:52:43;;;;;;;4.00;3.50;;;19.30;50.40;;;;;;5031427;28;20199;-70
2023/03/18 04:55:15;;;;;;;3.22;2.92;;;19.30;49.80;;;;;;5011957;28;20172;-70
2023/03/18 04:57:42;;;;;;;3.72;3.40;;;19.40;49.80;;;;;;5031207;28;20186;-70
2023/03/18 05:00:16;;;;;;;4.07;3.67;;;19.30;49.80;;;;;;5047431;28;20203;-70
2023/03/18 05:02:43;;;;;;;4.32;3.90;;;19.30;49.80;;;;;;5007417;28;20286;-70
2023/03/18 05:05:09;;;;;;;4.05;3.65;;;19.40;49.80;;;;;;5047724;28;20262;-70
2023/03/18 05:07:41;;;;;;;4.07;3.60;;;19.40;49.80;;;;;;5015244;28;20207;-71
2023/03/18 05:10:11;;;;;;;3.33;2.92;;;19.30;49.80;;;;;;5015414;28;20203;-70
2023/03/18 05:12:37;;;;;;;3.50;3.20;;;19.30;49.70;;;;;;5031137;28;20248;-70
2023/03/18 05:15:05;;;;;;;5.47;3.65;;;19.40;49.80;;;;;;5031238;28;20190;-70
2023/03/18 05:17:34;;;;;;;3.92;3.45;;;19.30;50.40;;;;;;5047876;28;20187;-70
2023/03/18 05:20:03;;;;;;;3.47;3.13;;;19.40;49.80;;;;;;5048053;28;20198;-70
2023/03/18 05:22:29;;;;;;;3.55;2.92;;;19.30;49.70;;;;;;5014494;28;20561;-70
2023/03/18 05:25:04;;;;;;;3.33;3.03;;;19.30;49.70;;;;;;5015673;28;20250;-70
2023/03/18 05:27:30;;;;;;;4.70;3.53;;;19.30;49.70;;;;;;5014242;28;20214;-70
2023/03/18 05:30:01;;;;;;;3.25;2.95;;;19.30;49.80;;;;;;5031105;28;20191;-69
2023/03/18 05:32:41;;;;;;;3.67;3.28;;;19.40;49.80;;;;;;5047566;28;20171;-70
2023/03/18 05:35:10;;;;;;;3.40;2.85;;;19.30;49.80;;;;;;5030517;28;20190;-69
2023/03/18 05:37:44;;;;;;;4.03;3.47;;;19.30;49.80;;;;;;5031045;28;20224;-71
2023/03/18 05:40:11;;;;;;;3.33;3.03;;;19.30;49.70;;;;;;5014418;28;20603;-70
2023/03/18 05:42:42;;;;;;;3.50;3.20;;;19.30;49.70;;;;;;5047674;28;20175;-70
2023/03/18 05:45:09;;;;;;;3.97;3.53;;;19.30;49.70;;;;;;5047715;28;20192;-70
2023/03/18 05:47:44;;;;;;;3.67;3.17;;;19.30;49.70;;;;;;5047151;28;20248;-69
2023/03/18 05:50:13;;;;;;;3.35;3.05;;;19.30;49.80;;;;;;5047332;28;20583;-69
2023/03/18 05:52:39;;;;;;;4.03;3.08;;;19.30;49.70;;;;;;5014621;28;20227;-71
2023/03/18 05:55:13;;;;;;;2.97;2.70;;;19.30;49.70;;;;;;5030675;28;20665;-70
2023/03/18 05:57:41;;;;;;;2.90;2.60;;;19.30;49.70;;;;;;5030949;28;20264;-70
2023/03/18 06:00:09;;;;;;;3.28;2.97;;;19.30;49.70;;;;;;5048009;28;20202;-71
2023/03/18 06:02:47;;;;;;;3.10;2.80;;;19.30;49.70;;;;;;5051305;28;20175;-71
2023/03/18 06:05:17;;;;;;;3.03;2.72;;;19.30;49.70;;;;;;5051437;28;20303;-70
2023/03/18 06:07:44;;;;;;;2.95;2.65;;;19.30;49.70;;;;;;5017913;28;20295;-70
2023/03/18 06:10:11;;;;;;;3.67;3.03;;;19.30;49.70;;;;;;5051025;28;20252;-70
2023/03/18 06:12:38;;;;;;;3.15;2.85;;;19.30;49.70;;;;;;5050945;28;20195;-70
2023/03/18 06:15:08;;;;;;;3.75;2.70;;;19.30;49.70;;;;;;5050826;28;20182;-71
2023/03/18 06:17:34;;;;;;;2.97;2.78;;;19.30;49.70;;;;;;5033980;28;20186;-70
2023/03/18 06:20:00;;;;;;;3.17;2.78;;;19.30;49.80;;;;;;5050616;28;20202;-70
2023/03/18 06:22:26;;;;;;;3.72;2.50;;;19.30;49.70;;;;;;5050890;28;20183;-70
2023/03/18 06:24:53;;;;;;;2.90;2.60;;;19.30;49.70;;;;;;5017636;28;20237;-70
2023/03/18 06:27:19;;;;;;;2.80;2.60;;;19.30;49.70;;;;;;5033727;28;20221;-71
2023/03/18 06:29:51;;;;;;;3.63;2.63;;;19.20;49.60;;;;;;5043356;28;20198;-70
2023/03/18 06:32:18;;;;;;;2.60;2.38;;;19.30;49.70;;;;;;5017586;28;20287;-70
2023/03/18 06:34:44;;;;;;;3.00;2.80;;;19.30;49.70;;;;;;5050218;28;20270;-70
2023/03/18 06:37:10;;;;;;;3.10;2.60;;;19.30;49.70;;;;;;5033693;28;20191;-70
2023/03/18 06:39:37;;;;;;;3.00;2.70;;;19.30;49.80;;;;;;5032938;28;20204;-70
2023/03/18 06:42:06;;;;;;;3.20;2.90;;;19.30;49.70;;;;;;5050591;28;20202;-70
2023/03/18 06:44:36;;;;;;;3.30;2.70;;;19.20;49.60;;;;;;5017850;28;20183;-70
2023/03/18 06:47:18;;;;;;;2.60;2.40;;;19.30;49.70;;;;;;5019183;28;20205;-70
2023/03/18 06:49:51;;;;;;;3.30;2.78;;;19.30;49.70;;;;;;5043026;28;20662;-70
2023/03/18 06:52:22;;;;;;;2.88;2.40;;;19.20;49.60;;;;;;5034619;28;20172;-70
2023/03/18 06:54:50;;;;;;;2.92;2.63;;;19.20;49.60;;;;;;5017270;28;20175;-70
2023/03/18 06:57:16;;;;;;;3.80;2.60;;;19.30;49.70;;;;;;5016915;28;20179;-70
2023/03/18 06:59:42;;;;;;;2.97;2.58;;;19.20;49.60;;;;;;5017299;28;20210;-70
2023/03/18 07:02:09;;;;;;;3.10;2.80;;;19.30;49.70;;;;;;5033712;28;20562;-70
2023/03/18 07:04:35;;;;;;;2.85;2.63;;;19.30;49.70;;;;;;5033382;28;20214;-69
2023/03/18 07:07:01;;;;;;;2.58;2.38;;;19.30;49.70;;;;;;5032897;28;20195;-69
2023/03/18 07:09:27;;;;;;;2.97;2.78;;;19.30;50.20;;;;;;5032194;28;20237;-70
2023/03/18 07:11:57;;;;;;;2.97;2.67;;;19.30;49.60;;;;;;5013128;28;20180;-70
2023/03/18 07:14:24;;;;;;;3.38;2.83;;;19.30;50.10;;;;;;5032011;28;20184;-69
2023/03/18 07:16:50;;;;;;;2.90;2.70;;;19.30;49.50;;;;;;5015962;28;20184;-70
2023/03/18 07:19:17;;;;;;;3.15;2.70;;;19.30;49.50;;;;;;5033074;28;20211;-70
2023/03/18 07:21:45;;;;;;;3.08;2.78;;;19.40;49.60;;;;;;5016104;28;20180;-70
2023/03/18 07:24:11;;;;;;;2.65;2.30;;;19.40;49.50;;;;;;5048837;28;20183;-70
2023/03/18 07:26:37;;;;;;;2.95;2.72;;;19.50;49.50;;;;;;5048547;28;20261;-70
2023/03/18 07:29:04;;;;;;;3.00;2.75;;;19.50;49.50;;;;;;5015373;28;20211;-71
2023/03/18 07:31:30;;;;;;;2.60;2.40;;;19.50;49.50;;;;;;5014981;28;20186;-71
2023/03/18 07:33:56;;;;;;;4.43;3.33;;;19.50;49.40;;;;;;5031643;28;20183;-71
2023/03/18 07:36:24;;;;;;;3.67;2.90;;;19.50;49.40;;;;;;5015909;28;20187;-70
2023/03/18 07:38:49;;;;;;;2.90;2.58;;;19.60;49.50;;;;;;5028235;28;20295;-71
2023/03/18 07:41:15;;;;;;;3.30;3.00;;;19.60;49.40;;;;;;5016034;28;20195;-70
2023/03/18 07:43:42;;;;;;;3.03;2.80;;;19.60;49.40;;;;;;5032263;28;20199;-70
2023/03/18 07:46:08;;;;;;;3.15;2.90;;;19.60;49.40;;;;;;5032650;28;20567;-71
2023/03/18 07:48:34;;;;;;;3.63;3.00;;;19.70;49.50;;;;;;5033287;28;20195;-70
2023/03/18 07:51:00;;;;;;;3.20;2.90;;;19.70;49.50;;;;;;5033514;28;20232;-70
2023/03/18 07:53:27;;;;;;;3.38;3.08;;;19.70;49.50;;;;;;5048760;28;20179;-70
2023/03/18 07:55:53;;;;;;;3.20;2.90;;;19.70;49.50;;;;;;5048845;28;20174;-70
2023/03/18 07:58:19;;;;;;;3.72;3.25;;;19.80;49.60;;;;;;5015326;28;20195;-71
2023/03/18 08:00:46;;;;;;;3.17;2.88;;;19.70;49.50;;;;;;5048959;28;20278;-70
2023/03/18 08:03:12;;;;;;;3.53;2.80;;;19.80;49.60;;;;;;5033364;28;20194;-70
2023/03/18 08:05:39;;;;;;;3.50;3.05;;;19.80;49.60;;;;;;5032424;28;20688;-70
2023/03/18 08:08:06;;;;;;;3.17;2.90;;;19.80;49.40;;;;;;5015230;28;20203;-71
2023/03/18 08:10:32;;;;;;;4.00;2.97;;;19.90;49.60;;;;;;5032939;28;20183;-70
2023/03/18 08:12:58;;;;;;;3.80;2.90;;;19.80;49.50;;;;;;5032013;28;20176;-70
2023/03/18 08:15:24;;;;;;;4.30;2.67;;;19.90;49.50;;;;;;5048617;28;20225;-71
2023/03/18 08:17:52;;;;;;;3.00;2.80;;;19.90;49.50;;;;;;5031627;28;20245;-71
2023/03/18 08:20:19;;;;;;;3.65;2.80;;;19.90;49.60;;;;;;5031782;28;20551;-70
2023/03/18 08:22:45;;;;;;;3.38;3.08;;;19.90;49.60;;;;;;5031751;28;20191;-70
2023/03/18 08:25:11;;;;;;;3.67;2.85;;;19.90;49.70;;;;;;5047931;28;20222;-71
2023/03/18 08:27:37;;;;;;;3.00;2.70;;;19.90;49.60;;;;;;5030943;28;20225;-70
2023/03/18 08:30:03;;;;;;;2.90;2.70;;;19.90;49.60;;;;;;5030824;28;20207;-69
2023/03/18 08:32:29;;;;;;;3.05;2.72;;;19.90;49.60;;;;;;5030584;28;20197;-70
2023/03/18 08:34:55;;;;;;;2.67;2.47;;;19.90;49.60;;;;;;5013868;28;20191;-68
2023/03/18 08:37:21;;;;;;;2.85;2.13;;;19.90;49.60;;;;;;5013819;28;20188;-71
2023/03/18 08:39:47;;;;;;;2.78;2.58;;;19.90;49.60;;;;;;5047595;28;20302;-70
2023/03/18 08:42:13;;;;;;;2.65;2.15;;;19.90;49.60;;;;;;5031021;28;20198;-70
2023/03/18 08:44:39;;;;;;;2.45;2.25;;;19.90;49.70;;;;;;5030978;28;20183;-70
2023/03/18 08:47:05;;;;;;;4.05;2.72;;;19.90;49.70;;;;;;5030753;28;20203;-70
2023/03/18 08:49:31;;;;;;;3.60;2.58;;;20.00;49.80;;;;;;5030352;28;20342;-70
2023/03/18 08:51:57;;;;;;;2.85;2.55;;;19.90;49.70;;;;;;5047476;28;20262;-71
2023/03/18 08:54:23;;;;;;;2.50;2.30;;;19.90;49.80;;;;;;5014636;28;20282;-72
2023/03/18 08:56:48;;;;;;;4.97;2.45;;;20.00;49.90;;;;;;5030585;28;20260;-70
2023/03/18 08:59:14;;;;;;;2.70;2.45;;;20.00;49.90;;;;;;5047012;28;20215;-70
2023/03/18 09:01:40;;;;;;;2.45;1.95;;;20.00;49.90;;;;;;5030886;28;20191;-71
2023/03/18 09:04:06;;;;;;;3.00;2.47;;;20.00;49.80;;;;;;5030748;28;20312;-70
2023/03/18 09:06:31;;;;;;;2.45;2.25;;;20.00;49.90;;;;;;5014200;28;20230;-71
2023/03/18 09:08:57;;;;;;;2.85;2.15;;;20.00;49.90;;;;;;5046874;28;20713;-71
2023/03/18 09:11:23;;;;;;;5.82;2.15;;;20.00;49.80;;;;;;5047356;28;20182;-71
2023/03/18 09:13:49;;;;;;;4.25;2.83;;;20.00;49.80;;;;;;5030735;28;20218;-69
2023/03/18 09:16:17;;;;;;;3.22;2.67;;;19.90;49.80;;;;;;5030844;28;20232;-71
2023/03/18 09:18:42;;;;;;;2.85;2.30;;;19.90;49.80;;;;;;5030163;28;20214;-71
2023/03/18 09:21:08;;;;;;;3.72;2.50;;;20.00;50.00;;;;;;5047245;28;20219;-70
2023/03/18 09:23:34;;;;;;;2.58;2.30;;;19.90;49.80;;;;;;5030807;28;20179;-70
2023/03/18 09:26:01;;;;;;;3.65;2.13;;;19.90;49.80;;;;;;5013941;28;20223;-71
2023/03/18 09:28:26;;;;;;;2.58;2.15;;;20.00;50.00;;;;;;5030478;28;20277;-70
2023/03/18 09:30:52;;;;;;;2.50;2.13;;;19.90;49.80;;;;;;5014233;28;20211;-70
2023/03/18 09:33:19;;;;;;;2.85;2.00;;;19.90;49.80;;;;;;5030023;28;20559;-69
2023/03/18 09:35:46;;;;;;;2.28;1.98;;;20.00;50.00;;;;;;5048519;28;20183;-71
2023/03/18 09:38:21;;;;;;;2.17;1.90;;;20.00;49.90;;;;;;5034480;28;20264;-71
2023/03/18 09:41:19;;;;;;;3.83;2.17;;;20.00;49.90;;;;;;5034197;28;20190;-70
2023/03/18 09:44:25;;;;;;;2.40;2.20;;;19.90;49.60;;;;;;5032727;28;20194;-70
2023/03/18 09:47:31;;;;;;;2.30;2.10;;;19.90;49.80;;;;;;5028589;28;20219;-70
2023/03/18 09:50:21;;;;;;;3.15;1.90;;;19.90;49.70;;;;;;5034157;28;20230;-70
2023/03/18 09:53:04;;;;;;;2.25;2.00;;;19.90;49.80;;;;;;5032839;28;20175;-70
2023/03/18 09:55:45;;;;;;;2.50;2.30;;;20.00;50.40;;;;;;5048986;28;20183;-70
2023/03/18 09:58:56;;;;;;;2.55;2.00;;;19.90;50.00;;;;;;5033520;28;20701;-71
2023/03/18 10:01:26;;;;;;;2.47;2.20;;;19.90;50.00;;;;;;5032641;28;20205;-71
2023/03/18 10:04:22;;;;;;;2.60;2.00;;;19.90;49.70;;;;;;5050582;28;20202;-70
2023/03/18 10:07:01;;;;;;;2.40;2.20;;;19.90;50.00;;;;;;5032847;28;20301;-70
2023/03/18 10:09:47;;;;;;;3.05;1.92;;;20.00;49.90;;;;;;5078629;22;20638;-68
2023/03/18 10:12:35;;;;;;;2.88;2.33;;;20.00;50.30;;;;;;5037665;28;20279;-68
2023/03/18 10:15:38;;;;;;;3.28;2.33;;;20.00;49.70;;;;;;5030048;28;20185;-68
2023/03/18 10:18:20;;;;;;;3.13;1.90;;;20.00;49.60;;;;;;5044067;28;20202;-69
2023/03/18 10:21:18;;;;;;;2.28;2.00;;;20.00;49.70;;;;;;5033913;28;20194;-68
2023/03/18 10:24:02;;;;;;;2.17;1.98;;;20.00;49.40;;;;;;5009606;28;20565;-70
2023/03/18 10:26:49;;;;;;;4.55;2.10;;;20.00;49.80;;;;;;5017797;28;20214;-70
2023/03/18 10:29:27;;;;;;;2.33;1.60;;;20.00;49.60;;;;;;5027741;28;20203;-69
2023/03/18 10:32:22;;;;;;;2.58;1.98;;;20.00;49.80;;;;;;5015862;28;20188;-69
2023/03/18 10:35:28;;;;;;;1.85;1.75;;;20.00;49.70;;;;;;5008225;28;20215;-67
2023/03/18 10:38:03;;;;;;;2.67;1.95;;;20.00;49.40;;;;;;5034971;28;20302;-68
2023/03/18 10:40:36;;;;;;;2.17;1.70;;;20.00;49.70;;;;;;5015695;28;20211;-69
2023/03/18 10:43:03;;;;;;;2.38;1.80;;;20.00;49.60;;;;;;4999889;28;20187;-69
2023/03/18 10:45:33;;;;;;;3.33;2.05;;;20.00;49.60;;;;;;4999590;28;20179;-68
2023/03/18 10:48:09;;;;;;;2.33;1.83;;;20.00;49.40;;;;;;4996455;28;20222;-69
2023/03/18 10:50:45;;;;;;;2.20;2.00;;;20.00;49.50;;;;;;4997956;28;20415;-71
2023/03/18 10:53:31;;;;;;;2.08;1.88;;;20.00;49.50;;;;;;4995293;28;20802;-69
2023/03/18 10:56:05;;;;;;;4.18;1.60;;;20.00;49.40;;;;;;5021681;28;20204;-70
2023/03/18 10:58:31;;;;;;;2.42;1.92;;;20.00;49.20;;;;;;5019036;28;20196;-69
2023/03/18 11:00:57;;;;;;;1.95;1.60;;;20.00;49.10;;;;;;5015224;28;20183;-69
2023/03/18 11:03:50;;;;;;;1.92;1.58;;;20.10;49.40;;;;;;4998644;28;20203;-69
2023/03/18 11:06:59;;;;;;;3.83;2.08;;;20.00;49.40;;;;;;4997968;28;20666;-69
2023/03/18 11:09:36;;;;;;;1.95;1.60;;;20.00;49.40;;;;;;5022778;28;20591;-68
2023/03/18 11:12:05;;;;;;;2.35;1.80;;;20.00;49.00;;;;;;4996366;28;20180;-68
2023/03/18 11:14:36;;;;;;;2.00;1.75;;;20.00;49.20;;;;;;4995947;28;20191;-69
2023/03/18 11:17:17;;;;;;;2.97;1.90;;;20.00;49.10;;;;;;5004364;28;20283;-67
2023/03/18 11:19:58;;;;;;;2.90;1.50;;;20.00;49.20;;;;;;4994468;28;20230;-69
2023/03/18 11:22:26;;;;;;;1.92;1.70;;;20.00;49.40;;;;;;4999677;28;20276;-69
2023/03/18 11:25:25;;;;;;;3.25;2.20;;;20.00;49.40;;;;;;4998100;28;20628;-68
2023/03/18 11:28:03;;;;;;;2.05;1.60;;;20.10;49.60;;;;;;5010047;28;20254;-68
2023/03/18 11:30:47;;;;;;;3.15;1.65;;;20.00;49.40;;;;;;4999285;28;20683;-69
2023/03/18 11:33:16;;;;;;;1.70;1.60;;;20.00;49.30;;;;;;4999371;28;20191;-70
2023/03/18 11:35:50;;;;;;;2.60;1.50;;;20.00;49.20;;;;;;4996595;28;20207;-68
2023/03/18 11:38:30;;;;;;;1.52;1.42;;;20.00;49.10;;;;;;4998921;28;20282;-69
2023/03/18 11:41:27;;;;;;;2.38;1.70;;;20.10;49.40;;;;;;4999099;28;20210;-69
2023/03/18 11:44:16;;;;;;;2.10;1.63;;;20.00;49.50;;;;;;5031434;28;20187;-69
2023/03/18 11:46:57;;;;;;;1.95;1.80;;;20.00;49.50;;;;;;5015399;28;20246;-69
2023/03/18 11:49:27;;;;;;;2.50;1.55;;;20.00;49.10;;;;;;4998877;28;20203;-68
2023/03/18 11:51:53;;;;;;;1.77;1.58;;;20.10;49.20;;;;;;4999028;28;20612;-69
2023/03/18 11:54:43;;;;;;;2.13;1.75;;;20.00;49.10;;;;;;4999061;28;20198;-69
2023/03/18 11:57:53;;;;;;;2.00;1.50;;;20.10;49.20;;;;;;4991928;28;20198;-68
2023/03/18 12:00:36;;;;;;;1.90;1.80;;;20.10;49.60;;;;;;5004690;28;20704;-68
2023/03/18 12:03:44;;;;;;;2.78;1.70;;;20.10;49.70;;;;;;4998648;28;20187;-69
2023/03/18 12:06:25;;;;;;;2.22;1.60;;;20.10;49.20;;;;;;4988029;28;20199;-68
2023/03/18 12:09:38;;;;;;;1.77;1.67;;;20.10;49.50;;;;;;5012473;28;20211;-69
2023/03/18 12:12:43;;;;;;;2.65;1.45;;;20.00;49.40;;;;;;5014676;28;20241;-67
2023/03/18 12:15:46;;;;;;;1.77;1.35;;;20.10;49.80;;;;;;5023537;28;20261;-68
2023/03/18 12:18:32;;;;;;;1.77;1.42;;;20.10;49.40;;;;;;5010300;28;20191;-68
2023/03/18 12:21:59;;;;;;;3.50;1.67;;;20.10;49.60;;;;;;4997456;28;20648;-69
2023/03/18 12:24:37;;;;;;;1.40;1.30;;;20.10;49.60;;;;;;4956633;28;20199;-68
2023/03/18 12:27:22;;;;;;;2.58;1.65;;;20.10;49.50;;;;;;4998008;28;20337;-68
2023/03/18 12:30:31;;;;;;;1.83;1.50;;;20.10;49.20;;;;;;5014380;28;20207;-69
2023/03/18 12:33:30;;;;;;;1.77;1.60;;;20.10;50.00;;;;;;5014455;28;20194;-68
2023/03/18 12:36:30;;;;;;;2.67;1.35;;;20.10;50.00;;;;;;5014332;28;20195;-69
2023/03/18 12:39:21;;;;;;;1.45;1.35;;;20.10;49.30;;;;;;5012741;28;20218;-70
2023/03/18 12:42:10;;;;;;;1.77;1.58;;;20.10;49.50;;;;;;4996609;28;20191;-68
2023/03/18 12:44:36;;;;;;;2.97;1.73;;;20.10;50.30;;;;;;5011873;28;20572;-68
2023/03/18 12:47:14;;;;;;;1.98;1.40;;;20.10;49.90;;;;;;4997109;28;20215;-67
2023/03/18 12:50:18;;;;;;;2.15;1.50;;;20.10;49.90;;;;;;4997604;28;20293;-68
2023/03/18 12:52:51;;;;;;;2.00;1.50;;;20.10;49.50;;;;;;5010759;28;20233;-70
2023/03/18 12:55:26;;;;;;;2.88;1.45;;;20.10;49.20;;;;;;5014147;28;20231;-68
2023/03/18 12:58:18;;;;;;;2.20;1.45;;;20.10;49.40;;;;;;5013777;28;20190;-68
2023/03/18 13:01:16;;;;;;;1.30;1.20;;;20.10;49.60;;;;;;5014114;28;20195;-68
2023/03/18 13:03:50;;;;;;;1.83;1.48;;;20.10;49.80;;;;;;5013574;28;20214;-70
2023/03/18 13:06:51;;;;;;;1.35;1.25;;;20.20;49.70;;;;;;4994435;28;20198;-68
2023/03/18 13:09:34;;;;;;;2.15;1.40;;;20.10;49.50;;;;;;4990462;28;20277;-69
2023/03/18 13:12:19;;;;;;;2.20;1.40;;;20.10;49.30;;;;;;4995108;28;20187;-69
2023/03/18 13:15:26;;;;;;;1.45;1.13;;;20.10;49.70;;;;;;5006759;28;20195;-69